Time;durP1;ratioP1;P1;durP2;ratioP2;P2;SDS_P1;SDS_P2;PMS_P1;PMS_P2;Temp;Humidity;BMP_temperature;BMP_pressure;BME280_temperature;BME280_humidity;BME280_pressure;Samples;Min_cycle;Max_cycle;Signal;HPM_P1;HPM_P2
2022/11/10 00:00:00;;;;;;;9.20;3.40;;;;;;;12.78;59.82;101079.19;836143;23;1078;-77
2022/11/10 00:00:39;;;;;;;9.05;3.13;;;;;;;12.75;59.78;101081.75;837779;23;1054;-78
2022/11/10 00:01:19;;;;;;;6.07;3.20;;;;;;;12.74;59.65;101083.47;841089;23;1014;-78
2022/11/10 00:01:58;;;;;;;6.00;3.50;;;;;;;12.81;59.84;101095.00;836478;23;1136;-78
2022/11/10 00:02:49;;;;;;;9.80;3.60;;;;;;;12.75;59.83;101089.63;836153;23;958;-78
2022/11/10 00:03:48;;;;;;;11.80;3.67;;;;;;;12.71;59.78;101088.66;836071;23;1385;-79
2022/11/10 00:04:35;;;;;;;10.65;3.70;;;;;;;12.77;59.79;101087.91;839826;23;1169;-78
2022/11/10 00:05:15;;;;;;;8.80;3.70;;;;;;;12.72;59.83;101084.31;840114;23;994;-77
2022/11/10 00:06:43;;;;;;;9.15;3.50;;;;;;;12.81;59.95;101096.72;845529;23;796;-78
2022/11/10 00:07:27;;;;;;;9.55;3.40;;;;;;;12.76;59.75;101101.84;839389;23;1937;-78
2022/11/10 00:08:09;;;;;;;8.32;3.30;;;;;;;12.65;60.00;101090.25;835252;23;1147;-78
2022/11/10 00:08:48;;;;;;;9.05;3.30;;;;;;;12.67;59.95;101091.16;834729;23;1166;-77
2022/11/10 00:09:27;;;;;;;9.13;3.63;;;;;;;12.70;59.97;101080.75;834252;23;1109;-77
2022/11/10 00:10:07;;;;;;;8.15;3.58;;;;;;;12.75;59.88;101089.63;839266;23;993;-77
2022/11/10 00:11:00;;;;;;;8.23;3.70;;;;;;;12.79;59.56;101094.06;833132;23;1014;-76
2022/11/10 00:11:39;;;;;;;7.53;3.50;;;;;;;12.75;59.68;101089.63;833359;23;942;-77
2022/11/10 00:12:23;;;;;;;9.00;3.67;;;;;;;12.75;59.98;101090.53;828868;23;934;-77
2022/11/10 00:13:03;;;;;;;9.50;3.67;;;;;;;12.69;59.82;101089.47;829140;23;1120;-77
2022/11/10 00:17:38;;;;;;;9.07;3.20;;;;;;;12.65;59.91;101100.72;835027;23;1114;-78
2022/11/10 00:18:17;;;;;;;8.30;3.40;;;;;;;12.72;60.20;101118.38;832532;23;1310;-76
2022/11/10 00:18:56;;;;;;;10.05;3.63;;;;;;;12.69;60.37;101105.19;832094;23;905;-78
2022/11/10 00:19:35;;;;;;;8.45;3.80;;;;;;;12.67;60.36;101097.28;829751;23;1022;-77
2022/11/10 00:20:14;;;;;;;8.32;3.78;;;;;;;12.65;60.44;101098.97;831683;23;1010;-78
2022/11/10 00:20:53;;;;;;;8.93;3.42;;;;;;;12.66;60.16;101094.63;837623;23;924;-78
2022/11/10 00:21:32;;;;;;;9.88;3.53;;;;;;;12.63;60.40;101094.53;837614;23;811;-77
2022/11/10 00:22:11;;;;;;;7.82;3.30;;;;;;;12.67;60.20;101104.25;840781;23;946;-78
2022/11/10 00:22:50;;;;;;;8.50;3.55;;;;;;;12.72;60.47;101105.28;831984;23;1100;-77
2022/11/10 00:23:29;;;;;;;11.23;3.85;;;;;;;12.72;60.20;101115.75;832216;23;810;-78
2022/11/10 00:24:09;;;;;;;7.97;3.50;;;;;;;12.71;60.22;101109.59;831929;23;1430;-78
2022/11/10 00:24:48;;;;;;;9.20;3.60;;;;;;;12.83;60.19;101126.44;831942;23;1138;-78
2022/11/10 00:25:27;;;;;;;8.43;3.60;;;;;;;12.71;60.24;101109.59;833733;23;961;-78
2022/11/10 00:26:17;;;;;;;8.45;3.58;;;;;;;12.71;60.33;101108.72;830904;23;1289;-78
2022/11/10 00:26:56;;;;;;;10.18;3.90;;;;;;;12.70;60.30;101112.19;831740;23;998;-77
2022/11/10 00:27:35;;;;;;;6.20;3.35;;;;;;;12.80;60.23;101114.19;828076;23;1049;-78
2022/11/10 00:28:14;;;;;;;8.15;3.30;;;;;;;12.75;60.29;101121.03;829443;23;1018;-77
2022/11/10 00:28:54;;;;;;;7.40;3.40;;;;;;;12.71;60.24;101109.59;822964;24;1012;-77
2022/11/10 00:29:33;;;;;;;8.90;3.83;;;;;;;12.75;60.09;101119.31;828113;23;1035;-78
2022/11/10 00:30:13;;;;;;;10.48;3.85;;;;;;;12.78;60.10;101126.34;831700;23;1193;-78
2022/11/10 00:30:52;;;;;;;10.85;3.90;;;;;;;12.74;60.04;101111.41;840644;23;1214;-78
2022/11/10 00:31:31;;;;;;;6.80;3.40;;;;;;;12.70;60.24;101122.66;833427;23;782;-79
2022/11/10 00:32:10;;;;;;;5.85;3.20;;;;;;;12.79;60.30;101129.88;836051;23;1136;-78
2022/11/10 00:32:49;;;;;;;10.38;3.50;;;;;;;12.70;60.57;101114.78;837377;23;1157;-77
2022/11/10 00:33:28;;;;;;;7.45;3.30;;;;;;;12.72;60.36;101124.47;839978;23;806;-78
2022/11/10 00:34:11;;;;;;;9.85;3.55;;;;;;;12.80;60.50;101132.53;835656;23;940;-78
2022/11/10 00:34:51;;;;;;;10.52;3.83;;;;;;;12.71;60.60;101119.19;827888;23;1115;-78
2022/11/10 00:35:30;;;;;;;10.55;4.10;;;;;;;12.77;60.38;101132.44;831019;23;1295;-78
2022/11/10 00:36:30;;;;;;;9.45;3.63;;;;;;;12.79;60.39;101128.13;831883;23;1023;-77
2022/11/10 00:37:10;;;;;;;8.43;3.70;;;;;;;12.68;60.68;101119.13;832011;23;1070;-76
2022/11/10 00:37:49;;;;;;;8.80;3.30;;;;;;;12.69;60.86;101116.53;831012;23;1923;-78
2022/11/10 00:38:29;;;;;;;9.20;3.80;;;;;;;12.69;60.78;101116.53;833722;23;822;-78
2022/11/10 00:39:10;;;;;;;6.93;3.53;;;;;;;12.72;60.72;101113.13;833031;23;1057;-78
2022/11/10 00:39:49;;;;;;;9.25;3.90;;;;;;;12.72;60.55;101111.38;831299;23;1235;-77
2022/11/10 00:40:28;;;;;;;9.93;3.75;;;;;;;12.69;60.34;101115.66;828130;23;1949;-77
2022/11/10 00:41:07;;;;;;;7.90;3.35;;;;;;;12.66;60.46;101113.84;829800;23;923;-78
2022/11/10 00:41:47;;;;;;;10.50;3.38;;;;;;;12.68;60.46;101119.13;833407;23;1084;-78
2022/11/10 00:42:26;;;;;;;12.57;3.78;;;;;;;12.65;60.76;101117.31;836562;23;792;-77
2022/11/10 00:43:05;;;;;;;9.45;3.45;;;;;;;12.68;60.51;101124.34;839797;23;1110;-77
2022/11/10 00:43:44;;;;;;;10.95;3.70;;;;;;;12.72;60.67;101132.31;839692;23;1129;-79
2022/11/10 00:44:23;;;;;;;7.50;3.72;;;;;;;12.65;60.55;101124.28;835785;23;1120;-77
2022/11/10 00:45:02;;;;;;;8.35;3.90;;;;;;;12.67;60.46;101125.22;837061;23;1099;-78
2022/11/10 00:45:43;;;;;;;12.75;4.50;;;;;;;12.69;60.78;101133.97;835736;23;1238;-76
2022/11/10 00:46:22;;;;;;;12.73;4.10;;;;;;;12.66;60.74;101136.53;836290;23;881;-77
2022/11/10 00:47:01;;;;;;;12.38;4.03;;;;;;;12.66;60.79;101133.91;832160;23;1048;-77
2022/11/10 00:47:40;;;;;;;14.80;4.45;;;;;;;12.68;60.74;101142.69;829188;23;1058;-78
2022/11/10 00:48:19;;;;;;;9.82;4.00;;;;;;;12.59;60.90;101130.22;827878;23;1033;-76
2022/11/10 00:48:58;;;;;;;11.30;4.65;;;;;;;12.64;60.58;101138.22;832142;23;986;-78
2022/11/10 00:49:37;;;;;;;13.93;4.07;;;;;;;12.67;60.58;101138.31;833064;23;1018;-78
2022/11/10 00:50:17;;;;;;;14.05;4.07;;;;;;;12.66;60.67;101141.75;831886;23;1027;-77
2022/11/10 00:50:56;;;;;;;10.80;3.90;;;;;;;12.67;60.67;101133.94;831797;23;1114;-77
2022/11/10 00:51:35;;;;;;;7.47;3.15;;;;;;;12.67;60.58;101143.53;837113;23;1109;-77
2022/11/10 00:52:14;;;;;;;7.30;3.55;;;;;;;12.59;60.78;101131.13;834125;23;994;-78
2022/11/10 00:52:53;;;;;;;8.15;4.00;;;;;;;12.67;61.10;101148.78;827523;23;1204;-78
2022/11/10 00:53:32;;;;;;;6.63;3.70;;;;;;;12.58;60.98;101131.97;828030;23;1223;-78
2022/11/10 00:54:12;;;;;;;7.05;3.80;;;;;;;12.66;60.73;101141.75;832135;23;1077;-78
2022/11/10 00:54:51;;;;;;;9.20;3.95;;;;;;;12.65;60.88;101145.25;840165;23;1042;-77
2022/11/10 00:55:30;;;;;;;11.18;4.00;;;;;;;12.59;60.86;101148.56;837207;23;799;-77
2022/11/10 00:56:09;;;;;;;9.23;3.70;;;;;;;12.43;61.25;101139.44;831513;23;1445;-78
2022/11/10 00:56:48;;;;;;;7.18;3.67;;;;;;;12.43;61.63;101144.69;827522;23;1022;-78
2022/11/10 00:57:27;;;;;;;11.10;4.10;;;;;;;12.37;61.43;101140.16;827660;23;1095;-78
2022/11/10 00:58:06;;;;;;;10.05;4.03;;;;;;;12.43;61.71;101136.81;827424;23;1058;-78
2022/11/10 00:58:46;;;;;;;10.30;3.72;;;;;;;12.40;61.55;101155.94;826812;23;1231;-78
2022/11/10 00:59:25;;;;;;;8.10;3.67;;;;;;;12.38;61.80;101141.03;835098;23;811;-78
2022/11/10 01:00:05;;;;;;;8.93;3.97;;;;;;;12.33;61.73;101141.81;838397;23;1144;-77
2022/11/10 01:00:45;;;;;;;10.07;3.97;;;;;;;12.44;61.57;101149.06;836246;23;1115;-78
2022/11/10 01:01:25;;;;;;;9.13;3.90;;;;;;;12.45;61.91;101150.81;839633;23;890;-78
2022/11/10 01:02:04;;;;;;;9.32;3.75;;;;;;;12.43;61.66;101149.91;835468;23;1037;-78
2022/11/10 01:02:43;;;;;;;13.73;3.75;;;;;;;12.47;61.53;101136.03;833007;23;916;-78
2022/11/10 01:03:22;;;;;;;12.68;4.18;;;;;;;12.44;61.39;101135.97;833047;23;818;-77
2022/11/10 01:04:02;;;;;;;10.73;3.70;;;;;;;12.43;61.66;101126.34;830719;23;1353;-77
2022/11/10 01:04:41;;;;;;;9.23;3.70;;;;;;;12.40;61.52;101128.91;837011;23;970;-76
2022/11/10 01:05:20;;;;;;;11.30;3.92;;;;;;;12.47;61.49;101141.28;836983;23;1167;-77
2022/11/10 01:06:08;;;;;;;7.43;3.40;;;;;;;12.43;61.95;101131.59;838793;23;1189;-77
2022/11/10 01:06:47;;;;;;;10.43;3.97;;;;;;;12.41;61.96;101131.53;835457;23;1344;-77
2022/11/10 01:07:27;;;;;;;7.72;3.63;;;;;;;12.43;61.93;101140.31;832269;23;1367;-77
2022/11/10 01:08:07;;;;;;;9.30;3.78;;;;;;;12.43;61.99;101149.91;831500;23;1139;-78
2022/11/10 01:08:46;;;;;;;15.00;4.43;;;;;;;12.32;61.90;101134.81;830869;23;1268;-79
2022/11/10 01:09:25;;;;;;;8.90;3.70;;;;;;;12.33;61.56;101133.97;834261;23;878;-79
2022/11/10 01:10:05;;;;;;;11.48;4.10;;;;;;;12.28;62.02;101146.03;831158;23;1213;-79
2022/11/10 01:10:44;;;;;;;12.52;4.07;;;;;;;12.34;61.80;101140.06;831571;23;1027;-79
2022/11/10 01:11:26;;;;;;;10.45;3.92;;;;;;;12.29;62.15;101141.69;831544;23;870;-78
2022/11/10 01:12:05;;;;;;;12.02;4.30;;;;;;;12.37;61.91;101141.88;831625;23;1183;-79
2022/11/10 01:12:45;;;;;;;10.70;3.67;;;;;;;12.28;62.10;101129.47;827688;23;1182;-79
2022/11/10 01:13:24;;;;;;;8.57;3.60;;;;;;;12.30;62.14;101133.00;831823;23;1970;-79
2022/11/10 01:14:03;;;;;;;13.52;3.90;;;;;;;12.26;61.85;101134.66;834509;23;1059;-80
2022/11/10 01:14:42;;;;;;;11.32;3.78;;;;;;;12.32;61.99;101141.75;836088;23;1025;-79
2022/11/10 01:15:22;;;;;;;10.10;3.65;;;;;;;12.27;62.21;101133.78;828431;23;1180;-79
2022/11/10 01:16:12;;;;;;;9.77;3.55;;;;;;;12.31;62.14;101138.25;831706;23;1092;-79
2022/11/10 01:16:51;;;;;;;9.25;3.70;;;;;;;12.27;62.27;101143.38;832993;23;1068;-79
2022/11/10 01:17:30;;;;;;;9.93;3.80;;;;;;;12.29;62.36;101160.88;840447;23;838;-79
2022/11/10 01:18:10;;;;;;;11.45;3.70;;;;;;;12.33;62.12;101162.75;835483;23;1291;-79
2022/11/10 01:18:55;;;;;;;10.57;3.83;;;;;;;12.32;62.14;101161.00;832867;23;1104;-79
2022/11/10 01:19:34;;;;;;;11.85;3.90;;;;;;;12.32;61.90;101166.22;828484;23;1206;-77
2022/11/10 01:20:13;;;;;;;8.60;3.92;;;;;;;12.26;62.24;101157.28;828016;23;951;-79
2022/11/10 01:20:53;;;;;;;8.40;3.83;;;;;;;12.29;62.05;101158.28;827748;23;1133;-77
2022/11/10 01:21:32;;;;;;;9.82;4.35;;;;;;;12.30;62.04;101165.28;827678;23;1252;-79
2022/11/10 01:22:11;;;;;;;9.00;3.92;;;;;;;12.26;62.30;101163.44;830694;23;1318;-78
2022/11/10 01:22:51;;;;;;;7.07;3.80;;;;;;;12.22;62.47;101158.94;826841;23;1150;-79
2022/11/10 01:23:30;;;;;;;8.73;3.60;;;;;;;12.20;62.01;101156.31;831845;23;815;-78
2022/11/10 01:24:18;;;;;;;6.70;3.60;;;;;;;12.22;62.05;101155.47;699345;28;20556;-78
2022/11/10 01:24:57;;;;;;;9.18;3.63;;;;;;;12.29;62.09;101167.88;695505;28;1117;-77
2022/11/10 01:25:36;;;;;;;7.85;3.60;;;;;;;12.26;62.35;101173.00;695542;28;1106;-77
2022/11/10 01:26:16;;;;;;;10.70;3.97;;;;;;;12.15;62.25;101157.91;692800;28;1245;-78
2022/11/10 01:26:55;;;;;;;11.57;4.10;;;;;;;12.20;62.46;101165.88;685174;28;1136;-78
2022/11/10 01:27:34;;;;;;;12.25;4.10;;;;;;;12.15;62.25;101170.09;689411;28;1082;-78
2022/11/10 01:28:13;;;;;;;12.48;4.00;;;;;;;12.09;62.47;101168.19;691521;28;1230;-78
2022/11/10 01:28:52;;;;;;;10.50;3.67;;;;;;;12.05;62.44;101168.97;694539;28;1814;-78
2022/11/10 01:29:31;;;;;;;8.50;3.42;;;;;;;12.02;62.90;101161.91;694708;28;1072;-78
2022/11/10 01:30:11;;;;;;;9.88;4.03;;;;;;;12.12;62.81;101180.47;696463;28;1395;-78
2022/11/10 01:30:58;;;;;;;10.55;4.00;;;;;;;12.06;62.74;101176.81;695615;28;1008;-78
2022/11/10 01:31:38;;;;;;;7.97;3.53;;;;;;;12.10;62.84;101187.41;692802;28;1044;-78
2022/11/10 01:32:17;;;;;;;8.35;4.00;;;;;;;12.02;62.49;101174.97;698929;28;1220;-78
2022/11/10 01:32:56;;;;;;;11.25;4.53;;;;;;;11.96;62.63;101169.56;695579;28;1132;-78
2022/11/10 01:33:36;;;;;;;11.55;4.03;;;;;;;11.97;62.73;101173.94;692302;28;1052;-78
2022/11/10 01:34:15;;;;;;;12.10;3.80;;;;;;;12.00;62.92;101184.53;691515;28;1649;-78
2022/11/10 01:34:54;;;;;;;11.55;4.20;;;;;;;12.06;63.09;101189.91;689375;28;1153;-78
2022/11/10 01:35:33;;;;;;;13.27;3.97;;;;;;;12.02;62.97;101184.53;692737;28;1798;-78
2022/11/10 01:36:13;;;;;;;11.80;3.90;;;;;;;12.06;62.97;101187.28;693614;28;1233;-78
2022/11/10 01:36:52;;;;;;;10.95;4.10;;;;;;;12.07;62.88;101186.44;695361;28;1205;-78
2022/11/10 01:37:32;;;;;;;12.40;4.00;;;;;;;12.06;62.66;101189.91;691808;28;1404;-77
2022/11/10 01:38:11;;;;;;;9.60;3.80;;;;;;;12.07;62.83;101206.50;695063;28;1122;-78
2022/11/10 01:38:50;;;;;;;8.77;3.50;;;;;;;12.03;63.00;101189.84;692089;28;1096;-78
2022/11/10 01:39:42;;;;;;;10.88;4.25;;;;;;;12.08;62.79;101203.03;695136;28;1510;-78
2022/11/10 01:40:21;;;;;;;9.65;4.00;;;;;;;12.02;62.70;101195.91;695156;28;1423;-79
2022/11/10 01:41:10;;;;;;;9.88;3.78;;;;;;;12.01;62.90;101188.91;692838;28;1244;-78
2022/11/10 01:41:49;;;;;;;8.82;3.60;;;;;;;11.96;63.14;101184.38;692870;28;1215;-78
2022/11/10 01:42:43;;;;;;;10.30;3.60;;;;;;;12.00;63.10;101192.38;695639;28;807;-78
2022/11/10 01:43:23;;;;;;;8.85;3.55;;;;;;;12.00;62.92;101192.38;701188;28;1280;-78
2022/11/10 01:44:14;;;;;;;11.90;4.13;;;;;;;11.99;62.54;101190.56;695424;28;1915;-78
2022/11/10 01:45:21;;;;;;;15.57;4.63;;;;;;;12.01;62.83;101194.16;694302;28;1003;-78
2022/11/10 01:46:06;;;;;;;8.57;3.80;;;;;;;11.94;63.17;101181.72;698036;28;996;-78
2022/11/10 01:46:45;;;;;;;9.02;3.80;;;;;;;11.94;62.96;101186.97;695531;28;1247;-78
2022/11/10 01:47:24;;;;;;;12.98;4.20;;;;;;;11.97;62.67;101180.94;692889;28;874;-78
2022/11/10 01:48:06;;;;;;;12.52;4.22;;;;;;;11.95;62.81;101174.75;692704;28;1145;-78
2022/11/10 01:49:13;;;;;;;9.38;3.70;;;;;;;12.04;63.22;101196.84;690456;28;1965;-78
2022/11/10 01:49:52;;;;;;;9.25;3.90;;;;;;;11.99;62.81;101190.56;695771;28;1088;-78
2022/11/10 01:50:37;;;;;;;14.18;4.47;;;;;;;12.04;63.00;101198.59;695692;28;862;-78
2022/11/10 01:51:31;;;;;;;12.70;4.40;;;;;;;12.07;63.15;101196.91;697396;28;1233;-78
2022/11/10 01:52:13;;;;;;;10.30;4.07;;;;;;;11.97;63.04;101183.56;695539;28;1197;-78
2022/11/10 01:52:56;;;;;;;9.05;4.00;;;;;;;12.01;62.99;101191.53;692667;28;1708;-77
2022/11/10 01:53:40;;;;;;;8.05;3.80;;;;;;;12.00;62.95;101187.13;695447;28;1622;-78
2022/11/10 01:54:32;;;;;;;9.40;3.88;;;;;;;11.93;63.07;101183.44;697149;28;1284;-78
2022/11/10 01:55:12;;;;;;;9.98;3.70;;;;;;;11.94;63.35;101186.97;688546;28;1542;-78
2022/11/10 01:55:52;;;;;;;9.95;3.50;;;;;;;12.03;63.22;101202.00;691083;28;1867;-79
2022/11/10 01:56:38;;;;;;;9.32;3.22;;;;;;;11.96;63.27;101190.50;695529;28;835;-78
2022/11/10 01:57:18;;;;;;;13.13;3.72;;;;;;;11.95;63.02;101193.97;694777;28;1158;-78
2022/11/10 01:57:57;;;;;;;12.32;3.75;;;;;;;11.93;62.82;101190.41;695340;28;2066;-78
2022/11/10 01:58:42;;;;;;;10.23;3.58;;;;;;;11.89;63.03;101188.53;695572;28;1122;-78
2022/11/10 01:59:27;;;;;;;8.80;3.25;;;;;;;11.91;62.98;101185.13;690328;28;1134;-77
2022/11/10 02:00:07;;;;;;;9.25;3.60;;;;;;;12.04;63.00;101209.91;690555;28;1452;-78
2022/11/10 02:00:46;;;;;;;11.00;3.65;;;;;;;11.99;63.13;101200.16;690271;28;1674;-79
2022/11/10 02:01:26;;;;;;;7.97;3.70;;;;;;;11.95;63.17;101188.72;687412;28;910;-78
2022/11/10 02:02:19;;;;;;;7.95;4.00;;;;;;;11.92;63.04;101193.84;690060;28;1233;-78
2022/11/10 02:03:10;;;;;;;7.32;3.72;;;;;;;11.89;63.18;101193.78;688461;28;1333;-78
2022/11/10 02:03:52;;;;;;;13.20;4.28;;;;;;;11.88;63.20;101195.53;692842;28;1825;-78
2022/11/10 02:04:32;;;;;;;11.57;3.80;;;;;;;11.91;63.14;101192.97;691454;28;942;-78
2022/11/10 02:05:11;;;;;;;10.57;3.50;;;;;;;11.86;63.10;101184.09;693937;28;1238;-78
2022/11/10 02:05:50;;;;;;;10.85;3.88;;;;;;;11.91;63.52;101202.53;692391;28;1788;-78
2022/11/10 02:06:33;;;;;;;10.52;3.88;;;;;;;11.85;63.47;101191.94;695026;28;1962;-78
2022/11/10 02:07:13;;;;;;;11.40;3.60;;;;;;;11.92;63.06;101204.31;687064;28;1281;-77
2022/11/10 02:07:52;;;;;;;10.98;4.00;;;;;;;11.86;63.26;101204.16;692084;28;1298;-77
2022/11/10 02:08:31;;;;;;;13.02;3.78;;;;;;;11.86;63.40;101206.78;692630;28;799;-78
2022/11/10 02:09:11;;;;;;;12.77;3.90;;;;;;;11.94;63.27;101205.25;696974;28;1280;-78
2022/11/10 02:09:52;;;;;;;9.77;4.00;;;;;;;11.88;63.13;101197.22;700641;28;1089;-78
2022/11/10 02:10:31;;;;;;;10.05;3.53;;;;;;;11.88;63.45;101192.00;698296;28;751;-78
2022/11/10 02:11:11;;;;;;;8.38;3.50;;;;;;;11.91;63.17;101200.81;698453;28;1494;-78
2022/11/10 02:11:52;;;;;;;7.78;3.40;;;;;;;11.90;63.29;101191.22;699434;28;1479;-78
2022/11/10 02:12:37;;;;;;;8.95;3.70;;;;;;;11.99;63.20;101211.50;695570;28;1078;-79
2022/11/10 02:13:17;;;;;;;9.95;3.88;;;;;;;11.95;63.18;101211.38;692623;28;1207;-79
2022/11/10 02:13:57;;;;;;;10.95;3.95;;;;;;;11.96;63.22;101200.97;690083;28;1220;-77
2022/11/10 02:14:37;;;;;;;8.57;3.90;;;;;;;11.94;63.16;101202.66;692674;28;2015;-78
2022/11/10 02:15:17;;;;;;;7.47;3.80;;;;;;;11.95;63.13;101200.91;695744;28;2020;-77
2022/11/10 02:15:57;;;;;;;12.25;4.05;;;;;;;11.97;63.21;101210.56;692831;28;1271;-78
2022/11/10 02:16:36;;;;;;;16.30;4.30;;;;;;;11.93;63.23;101195.66;692503;28;956;-78
2022/11/10 02:17:22;;;;;;;10.52;4.20;;;;;;;11.99;63.15;101206.25;695882;28;1351;-78
2022/11/10 02:18:01;;;;;;;12.35;4.00;;;;;;;11.97;63.03;101218.41;698111;28;1274;-78
2022/11/10 02:18:40;;;;;;;10.35;3.70;;;;;;;11.90;63.39;101213.84;690059;28;1048;-78
2022/11/10 02:19:23;;;;;;;8.55;3.80;;;;;;;11.92;63.55;101218.28;694408;28;1233;-78
2022/11/10 02:20:09;;;;;;;8.52;3.80;;;;;;;11.81;63.29;101216.19;697389;28;1238;-77
2022/11/10 02:20:48;;;;;;;10.63;3.97;;;;;;;11.74;63.57;101218.63;695396;28;1155;-78
2022/11/10 02:21:27;;;;;;;9.90;3.85;;;;;;;11.74;63.86;101229.06;695606;28;829;-78
2022/11/10 02:22:06;;;;;;;9.95;3.58;;;;;;;11.73;63.83;101219.47;696356;28;1728;-78
2022/11/10 02:22:45;;;;;;;8.88;3.63;;;;;;;11.71;64.01;101221.16;698101;28;1302;-78
2022/11/10 02:23:33;;;;;;;8.90;4.10;;;;;;;11.76;63.97;101230.03;695549;28;1545;-78
2022/11/10 02:24:13;;;;;;;8.80;3.80;;;;;;;11.69;63.90;101217.59;695395;28;1919;-78
2022/11/10 02:24:52;;;;;;;9.65;3.35;;;;;;;11.70;63.98;101229.84;692656;28;1194;-77
2022/11/10 02:25:32;;;;;;;13.40;3.92;;;;;;;11.67;64.17;101227.09;692592;28;861;-78
2022/11/10 02:26:14;;;;;;;12.50;4.50;;;;;;;11.63;64.25;101220.00;690244;28;1553;-77
2022/11/10 02:26:55;;;;;;;9.23;3.85;;;;;;;11.67;63.97;101229.72;692658;28;1087;-78
2022/11/10 02:27:34;;;;;;;7.53;3.63;;;;;;;11.66;64.01;101227.94;692596;28;1051;-77
2022/11/10 02:28:13;;;;;;;11.32;4.22;;;;;;;11.65;64.20;101227.09;697082;28;1198;-77
2022/11/10 02:28:53;;;;;;;10.75;4.22;;;;;;;11.63;64.11;101217.38;695547;28;1059;-78
2022/11/10 02:29:32;;;;;;;10.38;4.10;;;;;;;11.57;64.29;101212.84;691823;28;1507;-78
2022/11/10 02:30:13;;;;;;;14.23;4.90;;;;;;;11.57;64.13;101219.81;692156;28;1329;-78
2022/11/10 02:30:53;;;;;;;13.35;4.68;;;;;;;11.56;64.23;101212.81;692570;28;991;-78
2022/11/10 02:31:32;;;;;;;12.90;4.55;;;;;;;11.57;64.17;101222.41;691997;28;1934;-78
2022/11/10 02:32:11;;;;;;;9.90;4.40;;;;;;;11.59;64.21;101218.09;694768;28;1242;-80
2022/11/10 02:32:50;;;;;;;10.43;4.78;;;;;;;11.65;64.48;101226.19;692589;28;1033;-78
2022/11/10 02:33:29;;;;;;;11.88;4.88;;;;;;;11.59;64.29;101211.16;687833;28;1939;-77
2022/11/10 02:34:08;;;;;;;12.57;4.68;;;;;;;11.64;64.27;101213.91;690529;28;1266;-78
2022/11/10 02:34:48;;;;;;;11.27;4.32;;;;;;;11.62;63.97;101223.47;687086;28;1583;-78
2022/11/10 02:35:27;;;;;;;10.35;4.43;;;;;;;11.58;64.39;101209.41;694508;28;1014;-78
2022/11/10 02:36:07;;;;;;;7.97;4.32;;;;;;;11.60;64.42;101228.63;693911;28;1257;-77
2022/11/10 02:36:46;;;;;;;12.95;4.70;;;;;;;11.61;64.45;101224.28;696211;28;1170;-78
2022/11/10 02:37:25;;;;;;;13.82;4.60;;;;;;;11.61;64.13;101229.53;695103;28;1792;-77
2022/11/10 02:38:06;;;;;;;11.00;4.40;;;;;;;11.56;64.29;101221.50;699951;28;1220;-78
2022/11/10 02:38:45;;;;;;;10.13;4.57;;;;;;;11.62;64.19;101221.72;694110;28;991;-78
2022/11/10 02:39:24;;;;;;;11.95;5.07;;;;;;;11.59;64.42;101225.94;696008;28;1057;-78
2022/11/10 02:40:04;;;;;;;10.35;4.50;;;;;;;11.59;64.23;101211.16;691887;28;1209;-79
2022/11/10 02:40:43;;;;;;;9.95;4.30;;;;;;;11.58;64.48;101211.13;688090;28;1137;-79
2022/11/10 02:41:22;;;;;;;12.32;4.93;;;;;;;11.65;64.14;101220.97;690192;28;1554;-78
2022/11/10 02:42:02;;;;;;;10.95;4.90;;;;;;;11.56;64.28;101210.19;690388;28;917;-78
2022/11/10 02:42:42;;;;;;;9.07;4.00;;;;;;;11.56;64.38;101213.66;695926;28;1008;-78
2022/11/10 02:43:21;;;;;;;11.18;4.80;;;;;;;11.49;64.24;101210.00;698506;28;1254;-78
2022/11/10 02:44:02;;;;;;;12.50;4.63;;;;;;;11.51;64.39;101213.53;693529;28;1954;-78
2022/11/10 02:44:42;;;;;;;17.48;4.35;;;;;;;11.53;64.50;101221.44;693219;28;1315;-78
2022/11/10 02:45:21;;;;;;;10.77;4.55;;;;;;;11.51;64.56;101217.88;698497;28;1161;-78
2022/11/10 02:46:00;;;;;;;8.68;4.32;;;;;;;11.58;64.37;101232.03;690938;28;1475;-77
2022/11/10 02:46:39;;;;;;;8.48;4.10;;;;;;;11.54;64.57;101220.59;693922;28;1284;-77
2022/11/10 02:47:18;;;;;;;9.95;4.13;;;;;;;11.50;64.75;101221.34;695907;28;1150;-78
2022/11/10 02:47:57;;;;;;;9.70;4.32;;;;;;;11.53;64.70;101226.66;693812;28;918;-78
2022/11/10 02:48:36;;;;;;;11.38;4.25;;;;;;;11.58;64.58;101224.19;693759;28;1110;-78
2022/11/10 02:49:15;;;;;;;10.18;3.97;;;;;;;11.65;64.38;101231.41;689686;28;1679;-78
2022/11/10 02:49:54;;;;;;;8.38;3.90;;;;;;;11.62;64.56;101224.31;693290;28;1114;-78
2022/11/10 02:50:33;;;;;;;12.32;4.22;;;;;;;11.57;64.31;101230.25;691026;28;1475;-78
2022/11/10 02:51:13;;;;;;;12.95;4.57;;;;;;;11.54;64.05;101222.34;697022;28;1420;-78
2022/11/10 02:51:53;;;;;;;11.98;4.60;;;;;;;11.50;64.60;101221.34;696195;28;1194;-78
2022/11/10 02:52:32;;;;;;;9.85;4.03;;;;;;;11.49;64.64;101228.28;693594;28;1671;-78
2022/11/10 02:53:16;;;;;;;7.57;4.10;;;;;;;11.56;64.28;101236.31;694513;28;1291;-78
2022/11/10 02:53:55;;;;;;;9.30;4.10;;;;;;;11.52;64.44;101236.25;690801;28;1382;-78
2022/11/10 02:54:35;;;;;;;10.68;4.28;;;;;;;11.55;64.49;101243.25;688679;28;1103;-78
2022/11/10 02:55:13;;;;;;;8.27;3.75;;;;;;;11.44;64.44;101227.25;691031;28;1238;-78
2022/11/10 02:55:53;;;;;;;9.10;3.60;;;;;;;11.50;64.50;101239.63;693011;28;1933;-78
2022/11/10 02:56:31;;;;;;;8.70;3.70;;;;;;;11.41;64.50;101239.34;695956;28;810;-78
2022/11/10 02:57:10;;;;;;;9.70;4.10;;;;;;;11.40;64.59;101242.78;693070;28;1225;-78
2022/11/10 02:57:49;;;;;;;12.52;4.10;;;;;;;11.42;64.77;101246.34;694557;28;1174;-78
2022/11/10 02:58:28;;;;;;;12.20;3.88;;;;;;;11.46;65.01;101249.09;688296;28;1233;-79
2022/11/10 02:59:07;;;;;;;13.15;4.07;;;;;;;11.41;64.80;101240.22;688270;28;972;-78
2022/11/10 02:59:46;;;;;;;9.32;3.55;;;;;;;11.47;64.92;101250.88;686232;28;1377;-78
2022/11/10 03:00:25;;;;;;;9.98;3.53;;;;;;;11.47;64.97;101250.88;687421;28;886;-78
2022/11/10 03:01:05;;;;;;;14.93;4.30;;;;;;;11.42;64.80;101244.59;684832;28;1156;-78
2022/11/10 03:01:44;;;;;;;13.80;4.20;;;;;;;11.42;64.76;101244.59;687434;28;1886;-78
2022/11/10 03:02:23;;;;;;;9.80;4.10;;;;;;;11.40;64.77;101242.78;690364;28;1842;-78
2022/11/10 03:03:03;;;;;;;12.88;4.20;;;;;;;11.36;64.78;101234.84;692802;28;1200;-78
2022/11/10 03:03:43;;;;;;;14.32;4.43;;;;;;;11.44;64.80;101242.91;693126;28;1050;-78
2022/11/10 03:04:22;;;;;;;11.95;4.40;;;;;;;11.38;64.93;101241.00;695728;28;1145;-78
2022/11/10 03:05:01;;;;;;;12.07;4.20;;;;;;;11.42;64.98;101257.69;690991;28;1149;-78
2022/11/10 03:05:40;;;;;;;9.48;4.13;;;;;;;11.41;65.19;101244.59;689728;28;1480;-78
2022/11/10 03:06:19;;;;;;;7.65;4.18;;;;;;;11.43;64.99;101251.59;686957;28;1503;-78
2022/11/10 03:06:58;;;;;;;8.60;4.40;;;;;;;11.50;65.25;101250.97;690094;28;1087;-78
2022/11/10 03:07:37;;;;;;;10.65;4.70;;;;;;;11.45;65.03;101249.94;691712;28;1185;-78
2022/11/10 03:08:16;;;;;;;12.23;4.90;;;;;;;11.36;65.28;101249.63;694709;28;1290;-78
2022/11/10 03:08:56;;;;;;;10.68;4.55;;;;;;;11.38;65.30;101268.88;699012;28;1089;-78
2022/11/10 03:09:35;;;;;;;10.77;4.28;;;;;;;11.34;65.22;101256.53;690459;28;1126;-78
2022/11/10 03:10:14;;;;;;;9.20;4.20;;;;;;;11.32;65.32;101266.06;694398;28;1173;-78
2022/11/10 03:10:55;;;;;;;8.13;4.10;;;;;;;11.41;65.43;101271.59;696315;28;980;-78
2022/11/10 03:11:34;;;;;;;11.40;4.50;;;;;;;11.37;65.39;101265.38;698963;28;1002;-79
2022/11/10 03:12:13;;;;;;;12.68;4.40;;;;;;;11.34;65.42;101256.53;695032;28;1545;-78
2022/11/10 03:12:53;;;;;;;10.13;4.68;;;;;;;11.42;65.37;101264.66;693419;28;1013;-79
2022/11/10 03:13:32;;;;;;;13.63;4.75;;;;;;;11.24;65.56;101255.34;695874;28;903;-78
2022/11/10 03:14:11;;;;;;;13.32;4.70;;;;;;;11.24;65.65;101255.34;690640;28;1111;-79
2022/11/10 03:14:50;;;;;;;9.68;4.50;;;;;;;11.28;65.42;101261.56;687930;28;1153;-78
2022/11/10 03:15:29;;;;;;;11.20;4.63;;;;;;;11.30;65.35;101257.28;692749;28;921;-78
2022/11/10 03:16:17;;;;;;;12.07;4.57;;;;;;;11.33;65.55;101254.78;691515;28;1174;-78
2022/11/10 03:17:06;;;;;;;14.52;5.10;;;;;;;11.27;65.53;101259.78;695987;28;1221;-78
2022/11/10 03:17:45;;;;;;;13.27;4.90;;;;;;;11.22;66.04;101251.78;690751;28;1134;-78